Leavenworth, Washington
Current Conditions -  °F | °C
As of 2:55 AM on Saturday 20 Dec 2014 (Local Time) from KEAT Reporting Station
Light Rain Light Rain  
Wind Chill: 36°   Ceiling: 800
Heat Index: 36°   Visibility: 4mi
Dew Point: 35°   Wind: 0mph
Humidity: 97%   Direction: NA
Pressure: 29.91"   Gusts: NA
Location:  47.6°N, 120.66°W
Report Text: KEAT 201055Z AUTO 00000KT 4SM -RA BR OVC008 02/02 A2991 RMK AO2 RAB27 CIG 003V010 SLP137 P0000 T00220017
Loading
Personal Weather Stations






























Interactive Weather Map New forecast layout! Learn more

10-Day Weather Forecast

Advertisements
Track Severe Weather on mobile